Terminal Aerodrome Forecast
Issued by NWS Central Illinois

Home | Current Version | Previous Version | Text Only | Print | Product List | Glossary On
Versions: 1 2 3 4 5 6 7 8 9 10 11 12 13 14 15
428
FTUS43 KILX 240528
TAFPIA
TAF
KPIA 240528Z 2406/2506 17011KT P6SM SCT018
     FM240800 17009KT 5SM -SHRA BR VCTS SCT012 OVC020CB
      TEMPO 2408/2411 3SM TSRA BR BKN012CB
     FM241300 21010KT P6SM BKN015
     FM241900 21012KT P6SM SCT045 BKN250
     FM250100 21006KT P6SM VCTS BKN050CB=

USA.gov is the U.S. government's official web portal to all federal, state and local government web resources and services.